sensor_id;sensor_type;location;lat;lon;timestamp;temperature;humidity
48744;DHT22;34538;48.836;9.174;2024-03-22T00:01:59;8.50;99.90
48744;DHT22;34538;48.836;9.174;2024-03-22T00:04:25;8.50;99.90
48744;DHT22;34538;48.836;9.174;2024-03-22T00:06:52;8.40;99.90
48744;DHT22;34538;48.836;9.174;2024-03-22T00:09:18;8.40;99.90
48744;DHT22;34538;48.836;9.174;2024-03-22T00:11:45;8.40;99.90
48744;DHT22;34538;48.836;9.174;2024-03-22T00:14:11;8.30;99.90
48744;DHT22;34538;48.836;9.174;2024-03-22T00:16:39;8.30;99.90
48744;DHT22;34538;48.836;9.174;2024-03-22T00:19:06;8.20;99.90
48744;DHT22;34538;48.836;9.174;2024-03-22T00:21:33;8.20;99.90
48744;DHT22;34538;48.836;9.174;2024-03-22T00:23:58;8.10;99.90
48744;DHT22;34538;48.836;9.174;2024-03-22T00:26:26;8.10;99.90
48744;DHT22;34538;48.836;9.174;2024-03-22T00:28:52;8.10;99.90
48744;DHT22;34538;48.836;9.174;2024-03-22T00:31:19;8.00;99.90
48744;DHT22;34538;48.836;9.174;2024-03-22T00:33:45;8.00;99.90
48744;DHT22;34538;48.836;9.174;2024-03-22T00:36:13;7.90;99.90
48744;DHT22;34538;48.836;9.174;2024-03-22T00:38:39;7.90;99.90
48744;DHT22;34538;48.836;9.174;2024-03-22T00:41:06;7.90;99.90
48744;DHT22;34538;48.836;9.174;2024-03-22T00:43:32;7.80;99.90
48744;DHT22;34538;48.836;9.174;2024-03-22T00:45:59;7.80;99.90
48744;DHT22;34538;48.836;9.174;2024-03-22T00:48:27;7.70;99.90
48744;DHT22;34538;48.836;9.174;2024-03-22T00:50:54;7.70;99.90
48744;DHT22;34538;48.836;9.174;2024-03-22T00:53:21;7.70;99.90
48744;DHT22;34538;48.836;9.174;2024-03-22T00:55:48;7.70;99.90
48744;DHT22;34538;48.836;9.174;2024-03-22T00:58:17;7.60;99.90
48744;DHT22;34538;48.836;9.174;2024-03-22T01:00:44;7.50;99.90
48744;DHT22;34538;48.836;9.174;2024-03-22T01:03:11;7.50;99.90
48744;DHT22;34538;48.836;9.174;2024-03-22T01:05:38;7.40;99.90
48744;DHT22;34538;48.836;9.174;2024-03-22T01:08:06;7.40;99.90
48744;DHT22;34538;48.836;9.174;2024-03-22T01:10:34;7.40;99.90
48744;DHT22;34538;48.836;9.174;2024-03-22T01:13:00;7.40;99.90
48744;DHT22;34538;48.836;9.174;2024-03-22T01:15:27;7.30;99.90
48744;DHT22;34538;48.836;9.174;2024-03-22T01:17:53;7.30;99.90
48744;DHT22;34538;48.836;9.174;2024-03-22T01:20:20;7.30;99.90
48744;DHT22;34538;48.836;9.174;2024-03-22T01:22:46;7.20;99.90
48744;DHT22;34538;48.836;9.174;2024-03-22T01:25:13;7.20;99.90
48744;DHT22;34538;48.836;9.174;2024-03-22T01:27:40;7.10;99.90
48744;DHT22;34538;48.836;9.174;2024-03-22T01:30:08;7.10;99.90
48744;DHT22;34538;48.836;9.174;2024-03-22T01:32:34;7.00;99.90
48744;DHT22;34538;48.836;9.174;2024-03-22T01:35:01;7.00;99.90
48744;DHT22;34538;48.836;9.174;2024-03-22T01:37:27;6.90;99.90
48744;DHT22;34538;48.836;9.174;2024-03-22T01:39:54;6.90;99.90
48744;DHT22;34538;48.836;9.174;2024-03-22T01:42:20;6.80;99.90
48744;DHT22;34538;48.836;9.174;2024-03-22T01:44:49;6.80;99.90
48744;DHT22;34538;48.836;9.174;2024-03-22T01:47:16;6.80;99.90
48744;DHT22;34538;48.836;9.174;2024-03-22T01:49:43;6.70;99.90
48744;DHT22;34538;48.836;9.174;2024-03-22T01:52:09;6.70;99.90
48744;DHT22;34538;48.836;9.174;2024-03-22T01:54:36;6.70;99.90
48744;DHT22;34538;48.836;9.174;2024-03-22T01:57:02;6.60;99.90
48744;DHT22;34538;48.836;9.174;2024-03-22T01:59:30;6.60;99.90
48744;DHT22;34538;48.836;9.174;2024-03-22T02:01:57;6.60;99.90
48744;DHT22;34538;48.836;9.174;2024-03-22T02:04:24;6.60;99.90
48744;DHT22;34538;48.836;9.174;2024-03-22T02:06:50;6.60;99.90
48744;DHT22;34538;48.836;9.174;2024-03-22T02:09:17;6.60;99.90
48744;DHT22;34538;48.836;9.174;2024-03-22T02:11:43;6.50;99.90
48744;DHT22;34538;48.836;9.174;2024-03-22T02:14:10;6.50;99.90
48744;DHT22;34538;48.836;9.174;2024-03-22T02:16:36;6.50;99.90
48744;DHT22;34538;48.836;9.174;2024-03-22T02:19:07;6.40;99.90
48744;DHT22;34538;48.836;9.174;2024-03-22T02:21:33;6.40;99.90
48744;DHT22;34538;48.836;9.174;2024-03-22T02:24:01;6.30;99.90
48744;DHT22;34538;48.836;9.174;2024-03-22T02:26:27;6.30;99.90
48744;DHT22;34538;48.836;9.174;2024-03-22T02:28:54;6.30;99.90
48744;DHT22;34538;48.836;9.174;2024-03-22T02:31:20;6.30;99.90
48744;DHT22;34538;48.836;9.174;2024-03-22T02:33:47;6.30;99.90
48744;DHT22;34538;48.836;9.174;2024-03-22T02:36:12;6.20;99.90
48744;DHT22;34538;48.836;9.174;2024-03-22T02:38:39;6.30;99.90
48744;DHT22;34538;48.836;9.174;2024-03-22T02:41:06;6.20;99.90
48744;DHT22;34538;48.836;9.174;2024-03-22T02:43:33;6.20;99.90
48744;DHT22;34538;48.836;9.174;2024-03-22T02:45:59;6.20;99.90
48744;DHT22;34538;48.836;9.174;2024-03-22T02:48:26;6.10;99.90
48744;DHT22;34538;48.836;9.174;2024-03-22T02:50:55;6.10;99.90
48744;DHT22;34538;48.836;9.174;2024-03-22T02:53:23;6.10;99.90
48744;DHT22;34538;48.836;9.174;2024-03-22T02:55:49;6.10;99.90
48744;DHT22;34538;48.836;9.174;2024-03-22T02:58:19;6.10;99.90
48744;DHT22;34538;48.836;9.174;2024-03-22T03:00:45;6.10;99.90
48744;DHT22;34538;48.836;9.174;2024-03-22T03:03:12;6.10;99.90
48744;DHT22;34538;48.836;9.174;2024-03-22T03:05:38;6.10;99.90
48744;DHT22;34538;48.836;9.174;2024-03-22T03:08:07;6.20;99.90
48744;DHT22;34538;48.836;9.174;2024-03-22T03:10:33;6.20;99.90
48744;DHT22;34538;48.836;9.174;2024-03-22T03:13:00;6.20;99.90
48744;DHT22;34538;48.836;9.174;2024-03-22T03:15:28;6.20;99.90
48744;DHT22;34538;48.836;9.174;2024-03-22T03:17:55;6.20;99.90
48744;DHT22;34538;48.836;9.174;2024-03-22T03:20:21;6.20;99.90
48744;DHT22;34538;48.836;9.174;2024-03-22T03:22:49;6.30;99.90
48744;DHT22;34538;48.836;9.174;2024-03-22T03:25:15;6.30;99.90
48744;DHT22;34538;48.836;9.174;2024-03-22T03:27:41;6.40;99.90
48744;DHT22;34538;48.836;9.174;2024-03-22T03:30:08;6.40;99.90
48744;DHT22;34538;48.836;9.174;2024-03-22T03:32:36;6.40;99.90
48744;DHT22;34538;48.836;9.174;2024-03-22T03:35:02;6.40;99.90
48744;DHT22;34538;48.836;9.174;2024-03-22T03:37:30;6.40;99.90
48744;DHT22;34538;48.836;9.174;2024-03-22T03:39:56;6.40;99.90
48744;DHT22;34538;48.836;9.174;2024-03-22T03:42:23;6.40;99.90
48744;DHT22;34538;48.836;9.174;2024-03-22T03:44:50;6.40;99.90
48744;DHT22;34538;48.836;9.174;2024-03-22T03:47:17;6.40;99.90
48744;DHT22;34538;48.836;9.174;2024-03-22T03:49:46;6.40;99.90
48744;DHT22;34538;48.836;9.174;2024-03-22T03:52:13;6.50;99.90
48744;DHT22;34538;48.836;9.174;2024-03-22T03:54:39;6.50;99.90
48744;DHT22;34538;48.836;9.174;2024-03-22T03:57:06;6.40;99.90
48744;DHT22;34538;48.836;9.174;2024-03-22T03:59:32;6.40;99.90
48744;DHT22;34538;48.836;9.174;2024-03-22T04:01:59;6.40;99.90
48744;DHT22;34538;48.836;9.174;2024-03-22T04:04:25;6.40;99.90
48744;DHT22;34538;48.836;9.174;2024-03-22T04:06:53;6.40;99.90
48744;DHT22;34538;48.836;9.174;2024-03-22T04:09:19;6.40;99.90
48744;DHT22;34538;48.836;9.174;2024-03-22T04:11:46;6.40;99.90
48744;DHT22;34538;48.836;9.174;2024-03-22T04:14:13;6.40;99.90
48744;DHT22;34538;48.836;9.174;2024-03-22T04:16:40;6.40;99.90
48744;DHT22;34538;48.836;9.174;2024-03-22T04:19:06;6.40;99.90
48744;DHT22;34538;48.836;9.174;2024-03-22T04:21:33;6.40;99.90
48744;DHT22;34538;48.836;9.174;2024-03-22T04:24:00;6.30;99.90
48744;DHT22;34538;48.836;9.174;2024-03-22T04:26:27;6.40;99.90
48744;DHT22;34538;48.836;9.174;2024-03-22T04:28:53;6.40;99.90
48744;DHT22;34538;48.836;9.174;2024-03-22T04:31:20;6.40;99.90
48744;DHT22;34538;48.836;9.174;2024-03-22T04:33:46;6.40;99.90
48744;DHT22;34538;48.836;9.174;2024-03-22T04:36:13;6.50;99.90
48744;DHT22;34538;48.836;9.174;2024-03-22T04:38:39;6.50;99.90
48744;DHT22;34538;48.836;9.174;2024-03-22T04:41:07;6.50;99.90
48744;DHT22;34538;48.836;9.174;2024-03-22T04:43:35;6.60;99.90
48744;DHT22;34538;48.836;9.174;2024-03-22T04:46:02;6.50;99.90
48744;DHT22;34538;48.836;9.174;2024-03-22T04:48:28;6.60;99.90
48744;DHT22;34538;48.836;9.174;2024-03-22T04:50:54;6.60;99.90
48744;DHT22;34538;48.836;9.174;2024-03-22T04:53:21;6.60;99.90
48744;DHT22;34538;48.836;9.174;2024-03-22T04:55:48;6.70;99.90
48744;DHT22;34538;48.836;9.174;2024-03-22T04:58:17;6.70;99.90
48744;DHT22;34538;48.836;9.174;2024-03-22T05:00:45;6.80;99.90
48744;DHT22;34538;48.836;9.174;2024-03-22T05:03:12;6.80;99.90
48744;DHT22;34538;48.836;9.174;2024-03-22T05:05:39;6.90;99.90
48744;DHT22;34538;48.836;9.174;2024-03-22T05:08:06;6.90;99.90
48744;DHT22;34538;48.836;9.174;2024-03-22T05:10:33;6.90;99.90
48744;DHT22;34538;48.836;9.174;2024-03-22T05:12:59;7.00;99.90
48744;DHT22;34538;48.836;9.174;2024-03-22T05:15:28;7.00;99.90
48744;DHT22;34538;48.836;9.174;2024-03-22T05:17:56;7.00;99.90
48744;DHT22;34538;48.836;9.174;2024-03-22T05:20:23;7.00;99.90
48744;DHT22;34538;48.836;9.174;2024-03-22T05:22:49;7.00;99.90
48744;DHT22;34538;48.836;9.174;2024-03-22T05:25:16;7.00;99.90
48744;DHT22;34538;48.836;9.174;2024-03-22T05:27:43;7.00;99.90
48744;DHT22;34538;48.836;9.174;2024-03-22T05:30:11;7.00;99.90
48744;DHT22;34538;48.836;9.174;2024-03-22T05:32:40;7.10;99.90
48744;DHT22;34538;48.836;9.174;2024-03-22T05:35:08;7.00;99.90
48744;DHT22;34538;48.836;9.174;2024-03-22T05:37:34;7.10;99.90
48744;DHT22;34538;48.836;9.174;2024-03-22T05:40:01;7.10;99.90
48744;DHT22;34538;48.836;9.174;2024-03-22T05:42:27;7.10;99.90
48744;DHT22;34538;48.836;9.174;2024-03-22T05:44:55;7.20;99.90
48744;DHT22;34538;48.836;9.174;2024-03-22T05:47:21;7.20;99.90
48744;DHT22;34538;48.836;9.174;2024-03-22T05:49:49;7.20;99.90
48744;DHT22;34538;48.836;9.174;2024-03-22T05:52:15;7.20;99.90
48744;DHT22;34538;48.836;9.174;2024-03-22T05:54:42;7.20;99.90
48744;DHT22;34538;48.836;9.174;2024-03-22T05:57:08;7.30;99.90
48744;DHT22;34538;48.836;9.174;2024-03-22T05:59:36;7.30;99.90
48744;DHT22;34538;48.836;9.174;2024-03-22T06:02:02;7.30;99.90
48744;DHT22;34538;48.836;9.174;2024-03-22T06:04:29;7.30;99.90
48744;DHT22;34538;48.836;9.174;2024-03-22T06:06:56;7.30;99.90
48744;DHT22;34538;48.836;9.174;2024-03-22T06:09:25;7.30;99.90
48744;DHT22;34538;48.836;9.174;2024-03-22T06:12:00;7.30;99.90
48744;DHT22;34538;48.836;9.174;2024-03-22T06:14:28;7.30;99.90
48744;DHT22;34538;48.836;9.174;2024-03-22T06:16:54;7.30;99.90
48744;DHT22;34538;48.836;9.174;2024-03-22T06:19:21;7.30;99.90
48744;DHT22;34538;48.836;9.174;2024-03-22T06:21:47;7.30;99.90
48744;DHT22;34538;48.836;9.174;2024-03-22T06:24:15;7.40;99.90
48744;DHT22;34538;48.836;9.174;2024-03-22T06:26:41;7.40;99.90
48744;DHT22;34538;48.836;9.174;2024-03-22T06:29:08;7.40;99.90
48744;DHT22;34538;48.836;9.174;2024-03-22T06:31:34;7.40;99.90
48744;DHT22;34538;48.836;9.174;2024-03-22T06:34:01;7.50;99.90
48744;DHT22;34538;48.836;9.174;2024-03-22T06:36:28;7.60;99.90
48744;DHT22;34538;48.836;9.174;2024-03-22T06:38:55;7.70;99.90
48744;DHT22;34538;48.836;9.174;2024-03-22T06:41:23;7.80;99.90
48744;DHT22;34538;48.836;9.174;2024-03-22T06:43:50;7.90;99.90
48744;DHT22;34538;48.836;9.174;2024-03-22T06:46:15;8.10;99.90
48744;DHT22;34538;48.836;9.174;2024-03-22T06:48:43;8.20;99.90
48744;DHT22;34538;48.836;9.174;2024-03-22T06:51:09;8.30;99.90
48744;DHT22;34538;48.836;9.174;2024-03-22T06:53:36;8.40;99.90
48744;DHT22;34538;48.836;9.174;2024-03-22T06:56:01;8.60;99.90
48744;DHT22;34538;48.836;9.174;2024-03-22T06:58:30;8.60;99.90
48744;DHT22;34538;48.836;9.174;2024-03-22T07:00:56;8.70;99.90
48744;DHT22;34538;48.836;9.174;2024-03-22T07:03:23;8.90;99.90
48744;DHT22;34538;48.836;9.174;2024-03-22T07:05:49;9.00;99.90
48744;DHT22;34538;48.836;9.174;2024-03-22T07:08:16;9.10;99.90
48744;DHT22;34538;48.836;9.174;2024-03-22T07:10:42;9.10;99.90
48744;DHT22;34538;48.836;9.174;2024-03-22T07:13:11;9.20;99.90
48744;DHT22;34538;48.836;9.174;2024-03-22T07:15:39;9.30;99.90
48744;DHT22;34538;48.836;9.174;2024-03-22T07:18:05;9.40;99.90
48744;DHT22;34538;48.836;9.174;2024-03-22T07:20:32;9.50;99.90
48744;DHT22;34538;48.836;9.174;2024-03-22T07:22:57;9.60;99.90
48744;DHT22;34538;48.836;9.174;2024-03-22T07:25:24;9.60;99.90
48744;DHT22;34538;48.836;9.174;2024-03-22T07:27:50;9.70;99.90
48744;DHT22;34538;48.836;9.174;2024-03-22T07:30:17;9.90;99.90
48744;DHT22;34538;48.836;9.174;2024-03-22T07:32:45;9.90;99.90
48744;DHT22;34538;48.836;9.174;2024-03-22T07:35:13;10.10;99.90
48744;DHT22;34538;48.836;9.174;2024-03-22T07:37:39;10.20;99.90
48744;DHT22;34538;48.836;9.174;2024-03-22T07:40:06;10.20;99.90
48744;DHT22;34538;48.836;9.174;2024-03-22T07:42:32;10.40;99.90
48744;DHT22;34538;48.836;9.174;2024-03-22T07:44:59;10.40;99.90
48744;DHT22;34538;48.836;9.174;2024-03-22T07:47:25;10.60;99.90
48744;DHT22;34538;48.836;9.174;2024-03-22T07:49:53;10.70;99.90
48744;DHT22;34538;48.836;9.174;2024-03-22T07:52:19;10.80;99.90
48744;DHT22;34538;48.836;9.174;2024-03-22T07:54:47;10.90;99.90
48744;DHT22;34538;48.836;9.174;2024-03-22T07:57:12;10.90;99.90
48744;DHT22;34538;48.836;9.174;2024-03-22T07:59:39;11.00;99.90
48744;DHT22;34538;48.836;9.174;2024-03-22T08:02:05;11.10;99.90
48744;DHT22;34538;48.836;9.174;2024-03-22T08:04:32;11.30;99.90
48744;DHT22;34538;48.836;9.174;2024-03-22T08:06:59;11.40;99.90
48744;DHT22;34538;48.836;9.174;2024-03-22T08:09:26;11.50;99.90
48744;DHT22;34538;48.836;9.174;2024-03-22T08:11:52;11.60;99.90
48744;DHT22;34538;48.836;9.174;2024-03-22T08:14:19;11.70;99.90
48744;DHT22;34538;48.836;9.174;2024-03-22T08:16:45;11.90;99.90
48744;DHT22;34538;48.836;9.174;2024-03-22T08:19:12;12.00;99.90
48744;DHT22;34538;48.836;9.174;2024-03-22T08:21:38;12.20;99.90
48744;DHT22;34538;48.836;9.174;2024-03-22T08:24:06;12.30;99.90
48744;DHT22;34538;48.836;9.174;2024-03-22T08:26:32;12.50;99.90
48744;DHT22;34538;48.836;9.174;2024-03-22T08:28:59;12.70;99.90
48744;DHT22;34538;48.836;9.174;2024-03-22T08:31:25;12.80;99.90
48744;DHT22;34538;48.836;9.174;2024-03-22T08:33:54;13.00;99.90
48744;DHT22;34538;48.836;9.174;2024-03-22T08:36:21;13.10;99.90
48744;DHT22;34538;48.836;9.174;2024-03-22T08:38:49;13.30;99.90
48744;DHT22;34538;48.836;9.174;2024-03-22T08:41:16;13.50;99.90
48744;DHT22;34538;48.836;9.174;2024-03-22T08:43:43;13.70;99.90
48744;DHT22;34538;48.836;9.174;2024-03-22T08:46:10;13.80;99.90
48744;DHT22;34538;48.836;9.174;2024-03-22T08:48:36;14.00;99.90
48744;DHT22;34538;48.836;9.174;2024-03-22T08:51:02;14.20;99.90
48744;DHT22;34538;48.836;9.174;2024-03-22T08:53:29;14.20;99.90
48744;DHT22;34538;48.836;9.174;2024-03-22T08:55:55;14.30;99.90
48744;DHT22;34538;48.836;9.174;2024-03-22T08:58:23;14.40;99.90
48744;DHT22;34538;48.836;9.174;2024-03-22T09:00:49;14.40;99.90
48744;DHT22;34538;48.836;9.174;2024-03-22T09:03:16;14.40;99.90
48744;DHT22;34538;48.836;9.174;2024-03-22T09:05:43;14.40;99.90
48744;DHT22;34538;48.836;9.174;2024-03-22T09:08:10;14.50;99.90
48744;DHT22;34538;48.836;9.174;2024-03-22T09:10:36;14.50;99.90
48744;DHT22;34538;48.836;9.174;2024-03-22T09:13:03;14.60;99.90
48744;DHT22;34538;48.836;9.174;2024-03-22T09:15:30;14.60;99.90
48744;DHT22;34538;48.836;9.174;2024-03-22T09:17:57;14.70;99.90
48744;DHT22;34538;48.836;9.174;2024-03-22T09:20:23;14.80;99.90
48744;DHT22;34538;48.836;9.174;2024-03-22T09:22:50;14.80;99.90
48744;DHT22;34538;48.836;9.174;2024-03-22T09:25:16;14.90;99.90
48744;DHT22;34538;48.836;9.174;2024-03-22T09:27:44;15.10;99.90
48744;DHT22;34538;48.836;9.174;2024-03-22T09:30:10;15.20;99.90
48744;DHT22;34538;48.836;9.174;2024-03-22T09:32:38;15.40;99.90
48744;DHT22;34538;48.836;9.174;2024-03-22T09:35:06;15.50;99.90
48744;DHT22;34538;48.836;9.174;2024-03-22T09:37:33;15.70;99.90
48744;DHT22;34538;48.836;9.174;2024-03-22T09:39:59;15.80;99.90
48744;DHT22;34538;48.836;9.174;2024-03-22T09:42:26;15.90;99.90
48744;DHT22;34538;48.836;9.174;2024-03-22T09:44:55;16.10;99.90
48744;DHT22;34538;48.836;9.174;2024-03-22T09:47:21;16.20;99.90
48744;DHT22;34538;48.836;9.174;2024-03-22T09:49:51;16.30;99.90
48744;DHT22;34538;48.836;9.174;2024-03-22T09:52:20;16.50;99.90
48744;DHT22;34538;48.836;9.174;2024-03-22T09:54:46;16.60;99.90
48744;DHT22;34538;48.836;9.174;2024-03-22T09:57:18;16.70;99.90
48744;DHT22;34538;48.836;9.174;2024-03-22T09:59:44;16.80;99.90
48744;DHT22;34538;48.836;9.174;2024-03-22T10:02:12;16.80;99.90
48744;DHT22;34538;48.836;9.174;2024-03-22T10:04:38;17.00;99.90
48744;DHT22;34538;48.836;9.174;2024-03-22T10:07:08;17.10;99.90
48744;DHT22;34538;48.836;9.174;2024-03-22T10:09:36;17.10;99.90
48744;DHT22;34538;48.836;9.174;2024-03-22T10:12:03;17.20;99.90
48744;DHT22;34538;48.836;9.174;2024-03-22T10:14:29;17.20;99.90
48744;DHT22;34538;48.836;9.174;2024-03-22T10:16:59;17.30;99.90
48744;DHT22;34538;48.836;9.174;2024-03-22T10:19:25;17.30;99.90
48744;DHT22;34538;48.836;9.174;2024-03-22T10:21:59;17.30;99.90
48744;DHT22;34538;48.836;9.174;2024-03-22T10:24:27;17.30;99.90
48744;DHT22;34538;48.836;9.174;2024-03-22T10:26:54;17.30;99.90
48744;DHT22;34538;48.836;9.174;2024-03-22T10:29:20;17.30;99.90
48744;DHT22;34538;48.836;9.174;2024-03-22T10:31:47;17.30;99.90
48744;DHT22;34538;48.836;9.174;2024-03-22T10:34:14;17.30;99.90
48744;DHT22;34538;48.836;9.174;2024-03-22T10:36:41;17.40;99.90
48744;DHT22;34538;48.836;9.174;2024-03-22T10:39:09;17.40;99.90
48744;DHT22;34538;48.836;9.174;2024-03-22T10:41:38;17.40;99.90
48744;DHT22;34538;48.836;9.174;2024-03-22T10:44:04;17.40;99.90
48744;DHT22;34538;48.836;9.174;2024-03-22T10:46:34;17.40;99.90
48744;DHT22;34538;48.836;9.174;2024-03-22T10:49:02;17.40;99.90
48744;DHT22;34538;48.836;9.174;2024-03-22T10:51:30;17.50;99.90
48744;DHT22;34538;48.836;9.174;2024-03-22T10:53:57;17.50;99.90
48744;DHT22;34538;48.836;9.174;2024-03-22T10:56:26;17.50;99.90
48744;DHT22;34538;48.836;9.174;2024-03-22T10:58:53;17.50;99.90
48744;DHT22;34538;48.836;9.174;2024-03-22T11:01:25;17.50;99.90
48744;DHT22;34538;48.836;9.174;2024-03-22T11:03:51;17.60;99.90
48744;DHT22;34538;48.836;9.174;2024-03-22T11:06:19;17.50;99.90
48744;DHT22;34538;48.836;9.174;2024-03-22T11:08:49;17.40;99.90
48744;DHT22;34538;48.836;9.174;2024-03-22T11:11:18;17.40;99.90
48744;DHT22;34538;48.836;9.174;2024-03-22T11:13:47;17.40;99.90
48744;DHT22;34538;48.836;9.174;2024-03-22T11:16:15;17.30;99.90
48744;DHT22;34538;48.836;9.174;2024-03-22T11:18:41;17.40;99.90
48744;DHT22;34538;48.836;9.174;2024-03-22T11:21:08;17.50;99.90
48744;DHT22;34538;48.836;9.174;2024-03-22T11:23:35;17.50;99.90
48744;DHT22;34538;48.836;9.174;2024-03-22T11:26:03;17.60;99.90
48744;DHT22;34538;48.836;9.174;2024-03-22T11:28:30;17.60;99.90
48744;DHT22;34538;48.836;9.174;2024-03-22T11:30:56;17.60;99.90
48744;DHT22;34538;48.836;9.174;2024-03-22T11:33:24;17.70;99.90
48744;DHT22;34538;48.836;9.174;2024-03-22T11:35:53;17.80;99.90
48744;DHT22;34538;48.836;9.174;2024-03-22T11:38:20;17.90;99.90
48744;DHT22;34538;48.836;9.174;2024-03-22T11:40:46;18.10;99.90
48744;DHT22;34538;48.836;9.174;2024-03-22T11:43:15;18.30;99.90
48744;DHT22;34538;48.836;9.174;2024-03-22T11:45:42;18.40;99.40
48744;DHT22;34538;48.836;9.174;2024-03-22T11:48:09;18.50;99.40
48744;DHT22;34538;48.836;9.174;2024-03-22T11:50:37;18.60;99.30
48744;DHT22;34538;48.836;9.174;2024-03-22T11:53:05;18.70;98.80
48744;DHT22;34538;48.836;9.174;2024-03-22T11:55:31;18.80;99.00
48744;DHT22;34538;48.836;9.174;2024-03-22T11:57:58;18.90;98.90
48744;DHT22;34538;48.836;9.174;2024-03-22T12:00:25;19.00;99.50
48744;DHT22;34538;48.836;9.174;2024-03-22T12:02:53;19.00;99.00
48744;DHT22;34538;48.836;9.174;2024-03-22T12:05:19;19.00;98.00
48744;DHT22;34538;48.836;9.174;2024-03-22T12:07:48;19.10;99.50
48744;DHT22;34538;48.836;9.174;2024-03-22T12:10:14;19.10;99.00
48744;DHT22;34538;48.836;9.174;2024-03-22T12:12:41;19.10;98.90
48744;DHT22;34538;48.836;9.174;2024-03-22T12:15:07;19.10;99.40
48744;DHT22;34538;48.836;9.174;2024-03-22T12:17:34;19.10;98.70
48744;DHT22;34538;48.836;9.174;2024-03-22T12:20:01;19.00;98.60
48744;DHT22;34538;48.836;9.174;2024-03-22T12:22:29;19.00;99.50
48744;DHT22;34538;48.836;9.174;2024-03-22T12:24:56;19.00;98.00
48744;DHT22;34538;48.836;9.174;2024-03-22T12:27:24;18.90;98.00
48744;DHT22;34538;48.836;9.174;2024-03-22T12:29:50;18.90;98.10
48744;DHT22;34538;48.836;9.174;2024-03-22T12:32:17;18.90;98.10
48744;DHT22;34538;48.836;9.174;2024-03-22T12:34:43;18.90;98.60
48744;DHT22;34538;48.836;9.174;2024-03-22T12:37:10;18.90;98.90
48744;DHT22;34538;48.836;9.174;2024-03-22T12:39:36;19.00;99.00
48744;DHT22;34538;48.836;9.174;2024-03-22T12:42:04;19.00;98.50
48744;DHT22;34538;48.836;9.174;2024-03-22T12:44:31;19.10;97.90
48744;DHT22;34538;48.836;9.174;2024-03-22T12:46:58;19.10;98.30
48744;DHT22;34538;48.836;9.174;2024-03-22T12:49:24;19.20;97.30
48744;DHT22;34538;48.836;9.174;2024-03-22T12:51:51;19.30;97.20
48744;DHT22;34538;48.836;9.174;2024-03-22T12:54:17;19.30;97.90
48744;DHT22;34538;48.836;9.174;2024-03-22T12:56:45;19.30;97.70
48744;DHT22;34538;48.836;9.174;2024-03-22T12:59:13;19.30;97.80
48744;DHT22;34538;48.836;9.174;2024-03-22T13:01:39;19.20;97.70
48744;DHT22;34538;48.836;9.174;2024-03-22T13:04:05;19.30;98.10
48744;DHT22;34538;48.836;9.174;2024-03-22T13:06:32;19.30;97.90
48744;DHT22;34538;48.836;9.174;2024-03-22T13:09:00;19.30;97.50
48744;DHT22;34538;48.836;9.174;2024-03-22T13:11:27;19.30;98.10
48744;DHT22;34538;48.836;9.174;2024-03-22T13:13:54;19.30;97.20
48744;DHT22;34538;48.836;9.174;2024-03-22T13:16:23;19.30;97.20
48744;DHT22;34538;48.836;9.174;2024-03-22T13:18:49;19.20;97.30
48744;DHT22;34538;48.836;9.174;2024-03-22T13:21:16;19.20;98.10
48744;DHT22;34538;48.836;9.174;2024-03-22T13:23:42;19.10;98.00
48744;DHT22;34538;48.836;9.174;2024-03-22T13:26:09;19.10;98.20
48744;DHT22;34538;48.836;9.174;2024-03-22T13:28:35;19.00;98.10
48744;DHT22;34538;48.836;9.174;2024-03-22T13:31:02;19.00;98.50
48744;DHT22;34538;48.836;9.174;2024-03-22T13:33:30;18.90;98.80
48744;DHT22;34538;48.836;9.174;2024-03-22T13:35:57;18.90;99.00
48744;DHT22;34538;48.836;9.174;2024-03-22T13:38:23;18.90;98.70
48744;DHT22;34538;48.836;9.174;2024-03-22T13:40:53;18.80;98.60
48744;DHT22;34538;48.836;9.174;2024-03-22T13:43:19;18.70;98.20
48744;DHT22;34538;48.836;9.174;2024-03-22T13:45:48;18.60;98.10
48744;DHT22;34538;48.836;9.174;2024-03-22T13:48:14;18.60;98.40
48744;DHT22;34538;48.836;9.174;2024-03-22T13:50:42;18.60;98.30
48744;DHT22;34538;48.836;9.174;2024-03-22T13:53:08;18.60;98.30
48744;DHT22;34538;48.836;9.174;2024-03-22T13:55:36;18.60;98.50
48744;DHT22;34538;48.836;9.174;2024-03-22T13:58:02;18.60;98.60
48744;DHT22;34538;48.836;9.174;2024-03-22T14:00:29;18.70;98.40
48744;DHT22;34538;48.836;9.174;2024-03-22T14:02:55;18.70;98.10
48744;DHT22;34538;48.836;9.174;2024-03-22T14:05:22;18.50;97.90
48744;DHT22;34538;48.836;9.174;2024-03-22T14:07:51;18.50;98.10
48744;DHT22;34538;48.836;9.174;2024-03-22T14:10:17;18.40;98.00
48744;DHT22;34538;48.836;9.174;2024-03-22T14:12:45;18.30;97.60
48744;DHT22;34538;48.836;9.174;2024-03-22T14:15:13;18.20;97.90
48744;DHT22;34538;48.836;9.174;2024-03-22T14:17:39;18.20;98.70
48744;DHT22;34538;48.836;9.174;2024-03-22T14:20:06;18.20;97.70
48744;DHT22;34538;48.836;9.174;2024-03-22T14:22:38;18.10;98.00
48744;DHT22;34538;48.836;9.174;2024-03-22T14:25:08;18.20;96.70
48744;DHT22;34538;48.836;9.174;2024-03-22T14:27:34;18.10;96.20
48744;DHT22;34538;48.836;9.174;2024-03-22T14:30:02;18.00;96.20
48744;DHT22;34538;48.836;9.174;2024-03-22T14:32:31;18.00;95.60
48744;DHT22;34538;48.836;9.174;2024-03-22T14:34:58;18.00;95.50
48744;DHT22;34538;48.836;9.174;2024-03-22T14:37:25;17.90;95.00
48744;DHT22;34538;48.836;9.174;2024-03-22T14:39:51;17.90;95.20
48744;DHT22;34538;48.836;9.174;2024-03-22T14:42:19;17.90;95.70
48744;DHT22;34538;48.836;9.174;2024-03-22T14:44:45;17.90;95.80
48744;DHT22;34538;48.836;9.174;2024-03-22T14:47:12;17.90;96.20
48744;DHT22;34538;48.836;9.174;2024-03-22T14:49:38;17.90;96.10
48744;DHT22;34538;48.836;9.174;2024-03-22T14:52:06;17.90;96.10
48744;DHT22;34538;48.836;9.174;2024-03-22T14:54:32;17.90;95.70
48744;DHT22;34538;48.836;9.174;2024-03-22T14:56:58;17.90;96.10
48744;DHT22;34538;48.836;9.174;2024-03-22T14:59:28;17.90;95.80
48744;DHT22;34538;48.836;9.174;2024-03-22T15:01:55;18.00;95.40
48744;DHT22;34538;48.836;9.174;2024-03-22T15:04:22;17.90;94.90
48744;DHT22;34538;48.836;9.174;2024-03-22T15:06:48;17.90;95.60
48744;DHT22;34538;48.836;9.174;2024-03-22T15:09:17;17.90;95.50
48744;DHT22;34538;48.836;9.174;2024-03-22T15:11:44;17.80;95.60
48744;DHT22;34538;48.836;9.174;2024-03-22T15:14:11;17.70;95.90
48744;DHT22;34538;48.836;9.174;2024-03-22T15:16:39;17.70;96.20
48744;DHT22;34538;48.836;9.174;2024-03-22T15:19:07;17.70;96.20
48744;DHT22;34538;48.836;9.174;2024-03-22T15:21:33;17.60;96.40
48744;DHT22;34538;48.836;9.174;2024-03-22T15:24:00;17.60;96.90
48744;DHT22;34538;48.836;9.174;2024-03-22T15:26:26;17.60;96.60
48744;DHT22;34538;48.836;9.174;2024-03-22T15:28:53;17.60;97.00
48744;DHT22;34538;48.836;9.174;2024-03-22T15:31:18;17.60;96.90
48744;DHT22;34538;48.836;9.174;2024-03-22T15:33:47;17.50;97.60
48744;DHT22;34538;48.836;9.174;2024-03-22T15:36:12;17.50;97.10